sensor_id;sensor_type;location;lat;lon;timestamp;temperature;humidity
56861;DHT22;42744;51.094;3.490;2022-08-21T00:01:40;14.50;99.90
56861;DHT22;42744;51.094;3.490;2022-08-21T00:04:07;14.50;99.90
56861;DHT22;42744;51.094;3.490;2022-08-21T00:06:34;14.50;99.90
56861;DHT22;42744;51.094;3.490;2022-08-21T00:09:01;14.60;99.90
56861;DHT22;42744;51.094;3.490;2022-08-21T00:11:28;14.60;99.90
56861;DHT22;42744;51.094;3.490;2022-08-21T00:13:54;14.70;99.90
56861;DHT22;42744;51.094;3.490;2022-08-21T00:16:20;14.60;99.90
56861;DHT22;42744;51.094;3.490;2022-08-21T00:18:46;14.60;99.90
56861;DHT22;42744;51.094;3.490;2022-08-21T00:21:13;14.60;99.90
56861;DHT22;42744;51.094;3.490;2022-08-21T00:23:39;14.60;99.90
56861;DHT22;42744;51.094;3.490;2022-08-21T00:26:06;14.60;99.90
56861;DHT22;42744;51.094;3.490;2022-08-21T00:28:32;14.60;99.90
56861;DHT22;42744;51.094;3.490;2022-08-21T00:30:58;14.60;99.90
56861;DHT22;42744;51.094;3.490;2022-08-21T00:33:25;14.50;99.90
56861;DHT22;42744;51.094;3.490;2022-08-21T00:35:52;14.50;99.90
56861;DHT22;42744;51.094;3.490;2022-08-21T00:38:18;14.50;99.90
56861;DHT22;42744;51.094;3.490;2022-08-21T00:40:55;14.50;99.90
56861;DHT22;42744;51.094;3.490;2022-08-21T00:43:24;14.40;99.90
56861;DHT22;42744;51.094;3.490;2022-08-21T00:45:51;14.40;99.90
56861;DHT22;42744;51.094;3.490;2022-08-21T00:48:19;14.40;99.90
56861;DHT22;42744;51.094;3.490;2022-08-21T00:51:07;14.40;99.90
56861;DHT22;42744;51.094;3.490;2022-08-21T00:53:38;14.40;99.90
56861;DHT22;42744;51.094;3.490;2022-08-21T00:56:06;14.30;99.90
56861;DHT22;42744;51.094;3.490;2022-08-21T00:58:35;14.30;99.90
56861;DHT22;42744;51.094;3.490;2022-08-21T01:01:05;14.30;99.90
56861;DHT22;42744;51.094;3.490;2022-08-21T01:03:32;14.30;99.90
56861;DHT22;42744;51.094;3.490;2022-08-21T01:05:58;14.30;99.90
56861;DHT22;42744;51.094;3.490;2022-08-21T01:08:25;14.30;99.90
56861;DHT22;42744;51.094;3.490;2022-08-21T01:10:53;14.20;99.90
56861;DHT22;42744;51.094;3.490;2022-08-21T01:13:24;14.20;99.90
56861;DHT22;42744;51.094;3.490;2022-08-21T01:15:54;14.20;99.90
56861;DHT22;42744;51.094;3.490;2022-08-21T01:18:21;14.20;99.90
56861;DHT22;42744;51.094;3.490;2022-08-21T01:21:08;14.20;99.90
56861;DHT22;42744;51.094;3.490;2022-08-21T01:23:36;14.20;99.90
56861;DHT22;42744;51.094;3.490;2022-08-21T01:26:04;14.10;99.90
56861;DHT22;42744;51.094;3.490;2022-08-21T01:28:34;14.10;99.90
56861;DHT22;42744;51.094;3.490;2022-08-21T01:31:05;14.10;99.90
56861;DHT22;42744;51.094;3.490;2022-08-21T01:33:31;14.20;99.90
56861;DHT22;42744;51.094;3.490;2022-08-21T01:35:57;14.20;99.90
56861;DHT22;42744;51.094;3.490;2022-08-21T01:38:23;14.20;99.90
56861;DHT22;42744;51.094;3.490;2022-08-21T01:40:50;14.20;99.90
56861;DHT22;42744;51.094;3.490;2022-08-21T01:43:16;14.20;99.90
56861;DHT22;42744;51.094;3.490;2022-08-21T01:45:42;14.20;99.90
56861;DHT22;42744;51.094;3.490;2022-08-21T01:48:08;14.20;99.90
56861;DHT22;42744;51.094;3.490;2022-08-21T01:50:36;14.10;99.90
56861;DHT22;42744;51.094;3.490;2022-08-21T01:53:02;14.10;99.90
56861;DHT22;42744;51.094;3.490;2022-08-21T01:55:29;14.10;99.90
56861;DHT22;42744;51.094;3.490;2022-08-21T01:57:55;14.10;99.90
56861;DHT22;42744;51.094;3.490;2022-08-21T02:00:22;14.10;99.90
56861;DHT22;42744;51.094;3.490;2022-08-21T02:02:49;14.10;99.90
56861;DHT22;42744;51.094;3.490;2022-08-21T02:05:15;14.10;99.90
56861;DHT22;42744;51.094;3.490;2022-08-21T02:07:44;14.10;99.90
56861;DHT22;42744;51.094;3.490;2022-08-21T02:10:13;14.10;99.90
56861;DHT22;42744;51.094;3.490;2022-08-21T02:12:39;14.10;99.90
56861;DHT22;42744;51.094;3.490;2022-08-21T02:15:06;14.10;99.90
56861;DHT22;42744;51.094;3.490;2022-08-21T02:17:40;14.10;99.90
56861;DHT22;42744;51.094;3.490;2022-08-21T02:20:07;14.10;99.90
56861;DHT22;42744;51.094;3.490;2022-08-21T02:22:33;14.10;99.90
56861;DHT22;42744;51.094;3.490;2022-08-21T02:24:59;14.00;99.90
56861;DHT22;42744;51.094;3.490;2022-08-21T02:27:26;14.10;99.90
56861;DHT22;42744;51.094;3.490;2022-08-21T02:29:52;14.10;99.90
56861;DHT22;42744;51.094;3.490;2022-08-21T02:32:17;14.10;99.90
56861;DHT22;42744;51.094;3.490;2022-08-21T02:34:43;14.10;99.90
56861;DHT22;42744;51.094;3.490;2022-08-21T02:37:12;14.10;99.90
56861;DHT22;42744;51.094;3.490;2022-08-21T02:39:38;14.10;99.90
56861;DHT22;42744;51.094;3.490;2022-08-21T02:42:04;14.10;99.90
56861;DHT22;42744;51.094;3.490;2022-08-21T02:44:30;14.10;99.90
56861;DHT22;42744;51.094;3.490;2022-08-21T02:46:56;14.00;99.90
56861;DHT22;42744;51.094;3.490;2022-08-21T02:49:22;14.10;99.90
56861;DHT22;42744;51.094;3.490;2022-08-21T02:51:48;14.00;99.90
56861;DHT22;42744;51.094;3.490;2022-08-21T02:54:14;14.10;99.90
56861;DHT22;42744;51.094;3.490;2022-08-21T02:56:40;14.10;99.90
56861;DHT22;42744;51.094;3.490;2022-08-21T02:59:06;14.00;99.90
56861;DHT22;42744;51.094;3.490;2022-08-21T03:01:32;14.00;99.90
56861;DHT22;42744;51.094;3.490;2022-08-21T03:03:58;14.10;99.90
56861;DHT22;42744;51.094;3.490;2022-08-21T03:06:24;14.00;99.90
56861;DHT22;42744;51.094;3.490;2022-08-21T03:08:50;14.00;99.90
56861;DHT22;42744;51.094;3.490;2022-08-21T03:11:17;13.90;99.90
56861;DHT22;42744;51.094;3.490;2022-08-21T03:13:43;13.90;99.90
56861;DHT22;42744;51.094;3.490;2022-08-21T03:16:09;14.00;99.90
56861;DHT22;42744;51.094;3.490;2022-08-21T03:18:35;14.00;99.90
56861;DHT22;42744;51.094;3.490;2022-08-21T03:21:02;14.00;99.90
56861;DHT22;42744;51.094;3.490;2022-08-21T03:23:28;14.00;99.90
56861;DHT22;42744;51.094;3.490;2022-08-21T03:25:56;14.00;99.90
56861;DHT22;42744;51.094;3.490;2022-08-21T03:28:23;14.00;99.90
56861;DHT22;42744;51.094;3.490;2022-08-21T03:30:50;14.00;99.90
56861;DHT22;42744;51.094;3.490;2022-08-21T03:33:18;14.00;99.90
56861;DHT22;42744;51.094;3.490;2022-08-21T03:35:46;14.00;99.90
56861;DHT22;42744;51.094;3.490;2022-08-21T03:38:13;14.00;99.90
56861;DHT22;42744;51.094;3.490;2022-08-21T03:40:41;14.00;99.90
56861;DHT22;42744;51.094;3.490;2022-08-21T03:43:07;14.00;99.90
56861;DHT22;42744;51.094;3.490;2022-08-21T03:45:35;14.00;99.90
56861;DHT22;42744;51.094;3.490;2022-08-21T03:48:03;14.00;99.90
56861;DHT22;42744;51.094;3.490;2022-08-21T03:50:33;14.00;99.90
56861;DHT22;42744;51.094;3.490;2022-08-21T03:52:59;13.90;99.90
56861;DHT22;42744;51.094;3.490;2022-08-21T03:55:26;13.90;99.90
56861;DHT22;42744;51.094;3.490;2022-08-21T03:57:52;13.90;99.90
56861;DHT22;42744;51.094;3.490;2022-08-21T04:00:19;13.90;99.90
56861;DHT22;42744;51.094;3.490;2022-08-21T04:02:46;13.80;99.90
56861;DHT22;42744;51.094;3.490;2022-08-21T04:05:14;13.80;99.90
56861;DHT22;42744;51.094;3.490;2022-08-21T04:07:40;13.80;99.90
56861;DHT22;42744;51.094;3.490;2022-08-21T04:10:07;13.70;99.90
56861;DHT22;42744;51.094;3.490;2022-08-21T04:12:33;13.70;99.90
56861;DHT22;42744;51.094;3.490;2022-08-21T04:15:02;13.70;99.90
56861;DHT22;42744;51.094;3.490;2022-08-21T04:17:28;13.70;99.90
56861;DHT22;42744;51.094;3.490;2022-08-21T04:19:54;13.70;99.90
56861;DHT22;42744;51.094;3.490;2022-08-21T04:22:20;13.70;99.90
56861;DHT22;42744;51.094;3.490;2022-08-21T04:24:46;13.70;99.90
56861;DHT22;42744;51.094;3.490;2022-08-21T04:27:12;13.70;99.90
56861;DHT22;42744;51.094;3.490;2022-08-21T04:29:38;13.70;99.90
56861;DHT22;42744;51.094;3.490;2022-08-21T04:32:05;13.80;99.90
56861;DHT22;42744;51.094;3.490;2022-08-21T04:34:31;13.70;99.90
56861;DHT22;42744;51.094;3.490;2022-08-21T04:36:57;13.70;99.90
56861;DHT22;42744;51.094;3.490;2022-08-21T04:39:23;13.80;99.90
56861;DHT22;42744;51.094;3.490;2022-08-21T04:41:49;13.80;99.90
56861;DHT22;42744;51.094;3.490;2022-08-21T04:44:15;13.80;99.90
56861;DHT22;42744;51.094;3.490;2022-08-21T04:46:41;13.80;99.90
56861;DHT22;42744;51.094;3.490;2022-08-21T04:49:07;13.80;99.90
56861;DHT22;42744;51.094;3.490;2022-08-21T04:51:35;13.80;99.90
56861;DHT22;42744;51.094;3.490;2022-08-21T04:54:09;13.80;99.90
56861;DHT22;42744;51.094;3.490;2022-08-21T04:56:44;13.80;99.90
56861;DHT22;42744;51.094;3.490;2022-08-21T04:59:14;13.80;99.90
56861;DHT22;42744;51.094;3.490;2022-08-21T05:01:42;13.80;99.90
56861;DHT22;42744;51.094;3.490;2022-08-21T05:04:13;13.90;99.90
56861;DHT22;42744;51.094;3.490;2022-08-21T05:06:42;13.90;99.90
56861;DHT22;42744;51.094;3.490;2022-08-21T05:09:09;13.90;99.90
56861;DHT22;42744;51.094;3.490;2022-08-21T05:11:37;13.90;99.90
56861;DHT22;42744;51.094;3.490;2022-08-21T05:14:04;13.90;99.90
56861;DHT22;42744;51.094;3.490;2022-08-21T05:16:30;13.90;99.90
56861;DHT22;42744;51.094;3.490;2022-08-21T05:18:55;14.00;99.90
56861;DHT22;42744;51.094;3.490;2022-08-21T05:21:22;14.00;99.90
56861;DHT22;42744;51.094;3.490;2022-08-21T05:23:47;14.00;99.90
56861;DHT22;42744;51.094;3.490;2022-08-21T05:26:13;14.00;99.90
56861;DHT22;42744;51.094;3.490;2022-08-21T05:28:40;14.00;99.90
56861;DHT22;42744;51.094;3.490;2022-08-21T05:31:05;14.00;99.90
56861;DHT22;42744;51.094;3.490;2022-08-21T05:33:31;14.00;99.90
56861;DHT22;42744;51.094;3.490;2022-08-21T05:35:58;14.00;99.90
56861;DHT22;42744;51.094;3.490;2022-08-21T05:38:25;14.10;99.90
56861;DHT22;42744;51.094;3.490;2022-08-21T05:40:52;14.10;99.90
56861;DHT22;42744;51.094;3.490;2022-08-21T05:43:19;14.10;99.90
56861;DHT22;42744;51.094;3.490;2022-08-21T05:45:45;14.10;99.90
56861;DHT22;42744;51.094;3.490;2022-08-21T05:48:15;14.10;99.90
56861;DHT22;42744;51.094;3.490;2022-08-21T05:50:42;14.20;99.90
56861;DHT22;42744;51.094;3.490;2022-08-21T05:53:09;14.20;99.90
56861;DHT22;42744;51.094;3.490;2022-08-21T05:55:36;14.30;99.90
56861;DHT22;42744;51.094;3.490;2022-08-21T05:58:03;14.30;99.90
56861;DHT22;42744;51.094;3.490;2022-08-21T06:00:29;14.30;99.90
56861;DHT22;42744;51.094;3.490;2022-08-21T06:02:55;14.40;99.90
56861;DHT22;42744;51.094;3.490;2022-08-21T06:05:22;14.40;99.90
56861;DHT22;42744;51.094;3.490;2022-08-21T06:07:48;14.40;99.90
56861;DHT22;42744;51.094;3.490;2022-08-21T06:10:15;14.50;99.90
56861;DHT22;42744;51.094;3.490;2022-08-21T06:12:41;14.50;99.90
56861;DHT22;42744;51.094;3.490;2022-08-21T06:15:07;14.60;99.90
56861;DHT22;42744;51.094;3.490;2022-08-21T06:17:34;14.60;99.90
56861;DHT22;42744;51.094;3.490;2022-08-21T06:20:00;14.70;99.90
56861;DHT22;42744;51.094;3.490;2022-08-21T06:22:26;14.80;99.90
56861;DHT22;42744;51.094;3.490;2022-08-21T06:24:52;14.80;99.90
56861;DHT22;42744;51.094;3.490;2022-08-21T06:27:18;14.90;99.90
56861;DHT22;42744;51.094;3.490;2022-08-21T06:29:44;14.90;99.90
56861;DHT22;42744;51.094;3.490;2022-08-21T06:32:12;15.00;99.90
56861;DHT22;42744;51.094;3.490;2022-08-21T06:34:40;15.10;99.90
56861;DHT22;42744;51.094;3.490;2022-08-21T06:37:06;15.20;99.90
56861;DHT22;42744;51.094;3.490;2022-08-21T06:39:33;15.20;99.90
56861;DHT22;42744;51.094;3.490;2022-08-21T06:42:00;15.30;99.90
56861;DHT22;42744;51.094;3.490;2022-08-21T06:44:26;15.40;99.90
56861;DHT22;42744;51.094;3.490;2022-08-21T06:46:53;15.50;99.90
56861;DHT22;42744;51.094;3.490;2022-08-21T06:49:18;15.60;99.90
56861;DHT22;42744;51.094;3.490;2022-08-21T06:51:44;15.70;99.90
56861;DHT22;42744;51.094;3.490;2022-08-21T06:54:11;15.80;99.90
56861;DHT22;42744;51.094;3.490;2022-08-21T06:56:36;15.90;99.90
56861;DHT22;42744;51.094;3.490;2022-08-21T06:59:04;16.00;99.90
56861;DHT22;42744;51.094;3.490;2022-08-21T07:01:31;16.10;99.90
56861;DHT22;42744;51.094;3.490;2022-08-21T07:03:57;16.30;99.90
56861;DHT22;42744;51.094;3.490;2022-08-21T07:06:24;16.40;99.90
56861;DHT22;42744;51.094;3.490;2022-08-21T07:08:50;16.50;99.90
56861;DHT22;42744;51.094;3.490;2022-08-21T07:11:19;16.60;99.90
56861;DHT22;42744;51.094;3.490;2022-08-21T07:13:46;16.70;99.90
56861;DHT22;42744;51.094;3.490;2022-08-21T07:16:12;16.80;99.90
56861;DHT22;42744;51.094;3.490;2022-08-21T07:18:41;16.80;99.90
56861;DHT22;42744;51.094;3.490;2022-08-21T07:21:08;16.90;99.90
56861;DHT22;42744;51.094;3.490;2022-08-21T07:23:38;17.00;99.90
56861;DHT22;42744;51.094;3.490;2022-08-21T07:26:05;17.10;99.90
56861;DHT22;42744;51.094;3.490;2022-08-21T07:28:32;17.10;99.90
56861;DHT22;42744;51.094;3.490;2022-08-21T07:31:00;17.20;99.90
56861;DHT22;42744;51.094;3.490;2022-08-21T07:33:28;17.20;99.90
56861;DHT22;42744;51.094;3.490;2022-08-21T07:35:55;17.30;99.90
56861;DHT22;42744;51.094;3.490;2022-08-21T07:38:22;17.40;99.90
56861;DHT22;42744;51.094;3.490;2022-08-21T07:40:49;17.40;99.90
56861;DHT22;42744;51.094;3.490;2022-08-21T07:43:16;17.50;99.90
56861;DHT22;42744;51.094;3.490;2022-08-21T07:45:44;17.70;99.90
56861;DHT22;42744;51.094;3.490;2022-08-21T07:48:10;17.80;99.90
56861;DHT22;42744;51.094;3.490;2022-08-21T07:50:37;17.80;99.90
56861;DHT22;42744;51.094;3.490;2022-08-21T07:53:03;17.90;99.90
56861;DHT22;42744;51.094;3.490;2022-08-21T07:55:29;18.00;99.90
56861;DHT22;42744;51.094;3.490;2022-08-21T07:57:55;18.10;99.90
56861;DHT22;42744;51.094;3.490;2022-08-21T08:00:24;18.20;99.90
56861;DHT22;42744;51.094;3.490;2022-08-21T08:02:51;18.20;99.90
56861;DHT22;42744;51.094;3.490;2022-08-21T08:05:20;18.20;99.90
56861;DHT22;42744;51.094;3.490;2022-08-21T08:07:46;18.30;99.90
56861;DHT22;42744;51.094;3.490;2022-08-21T08:10:14;18.30;99.90
56861;DHT22;42744;51.094;3.490;2022-08-21T08:12:41;18.40;99.90
56861;DHT22;42744;51.094;3.490;2022-08-21T08:15:11;18.40;99.90
56861;DHT22;42744;51.094;3.490;2022-08-21T08:17:38;18.50;99.90
56861;DHT22;42744;51.094;3.490;2022-08-21T08:20:06;18.50;99.90
56861;DHT22;42744;51.094;3.490;2022-08-21T08:22:33;18.60;99.90
56861;DHT22;42744;51.094;3.490;2022-08-21T08:25:00;18.70;99.90
56861;DHT22;42744;51.094;3.490;2022-08-21T08:27:27;18.80;99.90
56861;DHT22;42744;51.094;3.490;2022-08-21T08:29:53;18.90;99.90
56861;DHT22;42744;51.094;3.490;2022-08-21T08:32:20;19.00;99.90
56861;DHT22;42744;51.094;3.490;2022-08-21T08:34:46;19.10;99.90
56861;DHT22;42744;51.094;3.490;2022-08-21T08:37:17;19.20;99.90
56861;DHT22;42744;51.094;3.490;2022-08-21T08:39:44;19.40;99.90
56861;DHT22;42744;51.094;3.490;2022-08-21T08:42:27;19.60;99.90
56861;DHT22;42744;51.094;3.490;2022-08-21T08:47:27;19.90;99.90
56861;DHT22;42744;51.094;3.490;2022-08-21T08:52:39;20.00;99.90
56861;DHT22;42744;51.094;3.490;2022-08-21T08:55:14;20.00;99.90
56861;DHT22;42744;51.094;3.490;2022-08-21T08:57:46;20.00;99.90
56861;DHT22;42744;51.094;3.490;2022-08-21T09:00:18;20.00;99.90
56861;DHT22;42744;51.094;3.490;2022-08-21T09:02:45;20.00;99.90
56861;DHT22;42744;51.094;3.490;2022-08-21T09:05:27;20.10;99.90
56861;DHT22;42744;51.094;3.490;2022-08-21T09:13:21;20.30;99.90
56861;DHT22;42744;51.094;3.490;2022-08-21T09:15:54;20.40;99.90
56861;DHT22;42744;51.094;3.490;2022-08-21T09:18:45;20.40;99.90
56861;DHT22;42744;51.094;3.490;2022-08-21T09:26:45;20.70;99.90
56861;DHT22;42744;51.094;3.490;2022-08-21T09:29:14;20.80;99.90
56861;DHT22;42744;51.094;3.490;2022-08-21T09:31:42;20.90;99.90
56861;DHT22;42744;51.094;3.490;2022-08-21T09:34:11;21.00;99.90
56861;DHT22;42744;51.094;3.490;2022-08-21T09:36:45;21.00;99.90
56861;DHT22;42744;51.094;3.490;2022-08-21T09:39:22;21.10;99.90
56861;DHT22;42744;51.094;3.490;2022-08-21T09:41:59;21.30;99.90
56861;DHT22;42744;51.094;3.490;2022-08-21T09:44:31;21.30;99.90
56861;DHT22;42744;51.094;3.490;2022-08-21T09:46:58;21.30;99.90
56861;DHT22;42744;51.094;3.490;2022-08-21T09:49:32;21.30;99.90
56861;DHT22;42744;51.094;3.490;2022-08-21T09:52:00;21.40;99.90
56861;DHT22;42744;51.094;3.490;2022-08-21T09:54:33;21.60;99.90
56861;DHT22;42744;51.094;3.490;2022-08-21T09:59:50;21.90;99.90
56861;DHT22;42744;51.094;3.490;2022-08-21T10:02:27;22.00;99.90
56861;DHT22;42744;51.094;3.490;2022-08-21T10:04:59;22.10;99.90
56861;DHT22;42744;51.094;3.490;2022-08-21T10:07:28;22.10;99.90
56861;DHT22;42744;51.094;3.490;2022-08-21T10:10:23;22.10;99.90
56861;DHT22;42744;51.094;3.490;2022-08-21T10:27:02;23.30;99.90
56861;DHT22;42744;51.094;3.490;2022-08-21T10:32:38;23.70;99.90
56861;DHT22;42744;51.094;3.490;2022-08-21T10:35:29;23.60;99.90
56861;DHT22;42744;51.094;3.490;2022-08-21T10:41:47;23.60;99.90
56861;DHT22;42744;51.094;3.490;2022-08-21T10:50:12;23.60;99.90
56861;DHT22;42744;51.094;3.490;2022-08-21T10:53:36;23.50;99.90
56861;DHT22;42744;51.094;3.490;2022-08-21T10:56:23;23.70;99.90
56861;DHT22;42744;51.094;3.490;2022-08-21T11:04:36;23.90;99.90
56861;DHT22;42744;51.094;3.490;2022-08-21T11:07:08;23.90;99.90
56861;DHT22;42744;51.094;3.490;2022-08-21T11:09:36;24.00;99.90
56861;DHT22;42744;51.094;3.490;2022-08-21T11:12:17;24.40;99.90
56861;DHT22;42744;51.094;3.490;2022-08-21T11:15:00;24.80;99.90
56861;DHT22;42744;51.094;3.490;2022-08-21T11:17:35;25.00;99.90
56861;DHT22;42744;51.094;3.490;2022-08-21T11:20:05;24.80;98.30
56861;DHT22;42744;51.094;3.490;2022-08-21T11:22:41;24.40;99.40
56861;DHT22;42744;51.094;3.490;2022-08-21T11:25:17;24.30;99.90
56861;DHT22;42744;51.094;3.490;2022-08-21T11:27:50;24.60;99.10
56861;DHT22;42744;51.094;3.490;2022-08-21T11:30:18;24.90;98.00
56861;DHT22;42744;51.094;3.490;2022-08-21T11:35:39;25.30;96.70
56861;DHT22;42744;51.094;3.490;2022-08-21T11:43:37;25.10;95.70
56861;DHT22;42744;51.094;3.490;2022-08-21T11:54:36;25.00;95.50
56861;DHT22;42744;51.094;3.490;2022-08-21T12:00:05;25.40;96.30
56861;DHT22;42744;51.094;3.490;2022-08-21T12:02:52;25.70;93.90
56861;DHT22;42744;51.094;3.490;2022-08-21T12:05:34;25.70;94.40
56861;DHT22;42744;51.094;3.490;2022-08-21T12:13:51;24.80;95.00
56861;DHT22;42744;51.094;3.490;2022-08-21T12:21:47;24.50;96.40
56861;DHT22;42744;51.094;3.490;2022-08-21T12:29:33;24.60;95.20
56861;DHT22;42744;51.094;3.490;2022-08-21T12:32:29;24.50;95.90
56861;DHT22;42744;51.094;3.490;2022-08-21T12:34:57;24.50;96.20
56861;DHT22;42744;51.094;3.490;2022-08-21T12:37:40;24.40;96.10
56861;DHT22;42744;51.094;3.490;2022-08-21T12:40:14;24.70;98.40
56861;DHT22;42744;51.094;3.490;2022-08-21T12:42:48;25.50;97.20
56861;DHT22;42744;51.094;3.490;2022-08-21T12:45:31;25.80;95.00
56861;DHT22;42744;51.094;3.490;2022-08-21T12:48:09;25.50;93.90
56861;DHT22;42744;51.094;3.490;2022-08-21T12:53:32;24.70;95.00
56861;DHT22;42744;51.094;3.490;2022-08-21T12:56:08;24.50;95.90
56861;DHT22;42744;51.094;3.490;2022-08-21T12:58:35;24.40;96.50
56861;DHT22;42744;51.094;3.490;2022-08-21T13:01:07;24.50;97.30
56861;DHT22;42744;51.094;3.490;2022-08-21T13:03:37;24.80;96.30
56861;DHT22;42744;51.094;3.490;2022-08-21T13:06:05;25.50;94.90
56861;DHT22;42744;51.094;3.490;2022-08-21T13:08:34;25.70;95.70
56861;DHT22;42744;51.094;3.490;2022-08-21T13:11:04;25.50;94.70
56861;DHT22;42744;51.094;3.490;2022-08-21T13:13:33;25.30;96.00
56861;DHT22;42744;51.094;3.490;2022-08-21T13:16:03;25.20;95.10
56861;DHT22;42744;51.094;3.490;2022-08-21T13:18:33;25.10;95.00
56861;DHT22;42744;51.094;3.490;2022-08-21T13:21:07;25.10;95.70
56861;DHT22;42744;51.094;3.490;2022-08-21T13:23:33;25.00;95.00
56861;DHT22;42744;51.094;3.490;2022-08-21T13:25:59;25.10;94.60
56861;DHT22;42744;51.094;3.490;2022-08-21T13:28:33;25.10;95.00
56861;DHT22;42744;51.094;3.490;2022-08-21T13:31:00;25.00;94.90
56861;DHT22;42744;51.094;3.490;2022-08-21T13:33:30;24.90;95.30
56861;DHT22;42744;51.094;3.490;2022-08-21T13:36:17;24.80;95.30
56861;DHT22;42744;51.094;3.490;2022-08-21T13:38:46;24.70;94.80
56861;DHT22;42744;51.094;3.490;2022-08-21T13:41:27;24.50;94.70
56861;DHT22;42744;51.094;3.490;2022-08-21T13:44:05;24.30;95.90
56861;DHT22;42744;51.094;3.490;2022-08-21T13:46:33;24.30;96.20
56861;DHT22;42744;51.094;3.490;2022-08-21T13:49:01;24.30;96.80
56861;DHT22;42744;51.094;3.490;2022-08-21T13:51:29;24.30;97.10
56861;DHT22;42744;51.094;3.490;2022-08-21T13:53:57;24.30;96.60
56861;DHT22;42744;51.094;3.490;2022-08-21T13:56:32;24.20;97.00
56861;DHT22;42744;51.094;3.490;2022-08-21T13:59:00;24.20;97.00
56861;DHT22;42744;51.094;3.490;2022-08-21T14:01:28;24.20;96.90
56861;DHT22;42744;51.094;3.490;2022-08-21T14:04:20;24.10;96.90
56861;DHT22;42744;51.094;3.490;2022-08-21T14:06:47;24.00;97.30
56861;DHT22;42744;51.094;3.490;2022-08-21T14:09:30;24.00;97.00
56861;DHT22;42744;51.094;3.490;2022-08-21T14:11:57;24.00;97.50
56861;DHT22;42744;51.094;3.490;2022-08-21T14:14:32;24.00;96.90
56861;DHT22;42744;51.094;3.490;2022-08-21T14:17:04;23.90;97.30
56861;DHT22;42744;51.094;3.490;2022-08-21T14:19:41;23.90;98.00
56861;DHT22;42744;51.094;3.490;2022-08-21T14:25:12;23.80;97.00
56861;DHT22;42744;51.094;3.490;2022-08-21T14:27:43;23.80;96.70
56861;DHT22;42744;51.094;3.490;2022-08-21T14:30:32;23.80;97.50
56861;DHT22;42744;51.094;3.490;2022-08-21T14:32:59;23.80;98.10
56861;DHT22;42744;51.094;3.490;2022-08-21T14:35:26;23.80;97.90
56861;DHT22;42744;51.094;3.490;2022-08-21T14:37:52;23.80;97.70
56861;DHT22;42744;51.094;3.490;2022-08-21T14:40:21;23.70;97.10
56861;DHT22;42744;51.094;3.490;2022-08-21T14:42:48;23.70;97.40
56861;DHT22;42744;51.094;3.490;2022-08-21T14:47:43;23.80;98.40
56861;DHT22;42744;51.094;3.490;2022-08-21T14:50:11;23.90;99.20
56861;DHT22;42744;51.094;3.490;2022-08-21T14:52:38;24.00;99.10
56861;DHT22;42744;51.094;3.490;2022-08-21T14:55:05;24.10;97.40
56861;DHT22;42744;51.094;3.490;2022-08-21T14:57:32;24.40;97.80
56861;DHT22;42744;51.094;3.490;2022-08-21T14:59:59;24.60;95.90
56861;DHT22;42744;51.094;3.490;2022-08-21T15:02:26;24.90;96.00
56861;DHT22;42744;51.094;3.490;2022-08-21T15:04:52;25.00;96.70
56861;DHT22;42744;51.094;3.490;2022-08-21T15:07:18;25.00;96.70
56861;DHT22;42744;51.094;3.490;2022-08-21T15:09:44;25.10;98.20
56861;DHT22;42744;51.094;3.490;2022-08-21T15:12:11;25.00;95.70
56861;DHT22;42744;51.094;3.490;2022-08-21T15:14:39;25.00;95.50
56861;DHT22;42744;51.094;3.490;2022-08-21T15:17:07;24.90;95.80
56861;DHT22;42744;51.094;3.490;2022-08-21T15:19:35;24.80;95.70
56861;DHT22;42744;51.094;3.490;2022-08-21T15:22:01;24.70;96.20
56861;DHT22;42744;51.094;3.490;2022-08-21T15:24:27;24.60;96.40
56861;DHT22;42744;51.094;3.490;2022-08-21T15:26:54;24.50;96.80
56861;DHT22;42744;51.094;3.490;2022-08-21T15:29:20;24.50;97.90
56861;DHT22;42744;51.094;3.490;2022-08-21T15:32:02;24.50;97.10
56861;DHT22;42744;51.094;3.490;2022-08-21T15:34:30;24.60;96.90
56861;DHT22;42744;51.094;3.490;2022-08-21T15:36:57;24.50;95.30
56861;DHT22;42744;51.094;3.490;2022-08-21T15:39:25;24.40;96.40
56861;DHT22;42744;51.094;3.490;2022-08-21T15:41:52;24.30;96.00
56861;DHT22;42744;51.094;3.490;2022-08-21T15:44:18;24.20;96.70
56861;DHT22;42744;51.094;3.490;2022-08-21T15:46:45;24.00;95.70
56861;DHT22;42744;51.094;3.490;2022-08-21T15:49:11;23.80;97.10
56861;DHT22;42744;51.094;3.490;2022-08-21T15:51:37;23.80;97.90
56861;DHT22;42744;51.094;3.490;2022-08-21T15:54:03;23.80;97.20
56861;DHT22;42744;51.094;3.490;2022-08-21T15:56:37;23.90;97.30
56861;DHT22;42744;51.094;3.490;2022-08-21T15:59:08;23.90;97.10
56861;DHT22;42744;51.094;3.490;2022-08-21T16:01:36;24.00;97.80
56861;DHT22;42744;51.094;3.490;2022-08-21T16:04:04;24.00;99.20
56861;DHT22;42744;51.094;3.490;2022-08-21T16:06:30;23.90;99.70
56861;DHT22;42744;51.094;3.490;2022-08-21T16:08:56;23.80;99.90
56861;DHT22;42744;51.094;3.490;2022-08-21T16:11:22;23.60;99.90
56861;DHT22;42744;51.094;3.490;2022-08-21T16:13:49;23.50;99.90
56861;DHT22;42744;51.094;3.490;2022-08-21T16:16:22;23.40;99.90
56861;DHT22;42744;51.094;3.490;2022-08-21T16:18:49;23.30;99.90
56861;DHT22;42744;51.094;3.490;2022-08-21T16:21:16;23.30;99.90
56861;DHT22;42744;51.094;3.490;2022-08-21T16:23:43;23.20;99.90
56861;DHT22;42744;51.094;3.490;2022-08-21T16:26:11;23.20;99.90
56861;DHT22;42744;51.094;3.490;2022-08-21T16:28:39;23.10;99.90
56861;DHT22;42744;51.094;3.490;2022-08-21T16:31:08;23.10;99.90
56861;DHT22;42744;51.094;3.490;2022-08-21T16:33:41;23.00;99.90
56861;DHT22;42744;51.094;3.490;2022-08-21T16:36:08;22.90;99.90
56861;DHT22;42744;51.094;3.490;2022-08-21T16:38:37;22.80;99.90
56861;DHT22;42744;51.094;3.490;2022-08-21T16:41:05;22.80;99.90
56861;DHT22;42744;51.094;3.490;2022-08-21T16:43:32;22.80;99.90
56861;DHT22;42744;51.094;3.490;2022-08-21T16:45:59;22.70;99.90
56861;DHT22;42744;51.094;3.490;2022-08-21T16:48:26;22.70;99.90
56861;DHT22;42744;51.094;3.490;2022-08-21T16:50:55;22.70;99.90
56861;DHT22;42744;51.094;3.490;2022-08-21T16:53:21;22.60;99.90
56861;DHT22;42744;51.094;3.490;2022-08-21T16:55:50;22.50;99.90
56861;DHT22;42744;51.094;3.490;2022-08-21T16:58:28;22.50;99.90
56861;DHT22;42744;51.094;3.490;2022-08-21T17:00:56;22.40;99.90
56861;DHT22;42744;51.094;3.490;2022-08-21T17:03:30;22.50;99.90
56861;DHT22;42744;51.094;3.490;2022-08-21T17:05:59;22.40;99.90
56861;DHT22;42744;51.094;3.490;2022-08-21T17:08:25;22.40;99.90
56861;DHT22;42744;51.094;3.490;2022-08-21T17:10:52;22.30;99.90
56861;DHT22;42744;51.094;3.490;2022-08-21T17:13:19;22.30;99.90
56861;DHT22;42744;51.094;3.490;2022-08-21T17:15:45;22.20;99.90
56861;DHT22;42744;51.094;3.490;2022-08-21T17:18:17;22.20;99.90